Time;durP1;ratioP1;P1;durP2;ratioP2;P2;SDS_P1;SDS_P2;PMS_P1;PMS_P2;Temp;Humidity;BMP_temperature;BMP_pressure;BME280_temperature;BME280_humidity;BME280_pressure;Samples;Min_cycle;Max_cycle;Signal;HPM_P1;HPM_P2
2022/09/26 00:00:42;;;;;;;;;;;12.40;99.90;;;;;;5088452;28;19924;-56
2022/09/26 00:03:10;;;;;;;;;;;12.40;99.90;;;;;;5108651;28;20280;-55
2022/09/26 00:05:37;;;;;;;;;;;12.40;99.90;;;;;;5109173;27;19928;-57
2022/09/26 00:08:05;;;;;;;;;;;12.30;99.90;;;;;;5106532;27;20363;-57
2022/09/26 00:10:33;;;;;;;;;;;12.30;99.90;;;;;;5106845;28;19924;-57
2022/09/26 00:13:01;;;;;;;;;;;12.20;99.90;;;;;;5107234;28;19935;-56
2022/09/26 00:15:28;;;;;;;;;;;12.10;99.90;;;;;;5107119;28;20294;-57
2022/09/26 00:17:55;;;;;;;;;;;12.00;99.90;;;;;;5105776;28;19923;-56
2022/09/26 00:20:23;;;;;;;;;;;12.00;99.90;;;;;;5102762;28;19934;-57
2022/09/26 00:22:50;;;;;;;;;;;11.90;99.90;;;;;;5102338;28;19931;-58
2022/09/26 00:25:18;;;;;;;;;;;11.80;99.90;;;;;;5107068;28;19939;-58
2022/09/26 00:27:45;;;;;;;;;;;11.80;99.90;;;;;;5109630;27;19928;-57
2022/09/26 00:30:13;;;;;;;;;;;11.80;99.90;;;;;;5108499;27;20295;-58
2022/09/26 00:32:40;;;;;;;;;;;11.80;99.90;;;;;;5069833;28;19950;-56
2022/09/26 00:35:08;;;;;;;;;;;11.70;99.90;;;;;;5087550;28;19928;-58
2022/09/26 00:37:36;;;;;;;;;;;11.70;99.90;;;;;;5105719;28;20291;-58
2022/09/26 00:40:03;;;;;;;;;;;11.70;99.90;;;;;;5094283;28;19928;-58
2022/09/26 00:42:31;;;;;;;;;;;11.70;99.90;;;;;;5089880;28;19934;-56
2022/09/26 00:44:58;;;;;;;;;;;11.80;99.90;;;;;;5102765;28;20331;-58
2022/09/26 00:47:29;;;;;;;;;;;11.70;99.90;;;;;;5106710;28;19924;-58
2022/09/26 00:49:58;;;;;;;;;;;11.80;99.90;;;;;;5096425;28;19925;-58
2022/09/26 00:52:48;;;;;;;;;;;11.80;99.90;;;;;;5090454;28;19946;-58
2022/09/26 00:55:17;;;;;;;;;;;11.80;99.90;;;;;;5109431;28;19924;-56
2022/09/26 00:57:49;;;;;;;;;;;11.70;99.90;;;;;;5091384;28;19931;-56
2022/09/26 01:00:17;;;;;;;;;;;11.80;99.90;;;;;;5103991;28;19931;-56
2022/09/26 01:02:47;;;;;;;;;;;11.80;99.90;;;;;;5107450;28;20302;-57
2022/09/26 01:05:15;;;;;;;;;;;11.80;99.90;;;;;;5116513;27;19931;-56
2022/09/26 01:07:43;;;;;;;;;;;11.80;99.90;;;;;;5095518;27;19928;-56
2022/09/26 01:10:11;;;;;;;;;;;11.80;99.90;;;;;;5096447;28;19931;-56
2022/09/26 01:12:38;;;;;;;;;;;11.80;99.90;;;;;;5107365;28;19935;-56
2022/09/26 01:15:07;;;;;;;;;;;11.80;99.90;;;;;;5088154;28;20358;-57
2022/09/26 01:17:40;;;;;;;;;;;11.80;99.90;;;;;;5087450;28;20371;-57
2022/09/26 01:20:07;;;;;;;;;;;11.80;99.90;;;;;;5103613;27;20297;-58
2022/09/26 01:22:50;;;;;;;;;;;11.80;99.90;;;;;;5087904;28;20366;-57
2022/09/26 01:25:27;;;;;;;;;;;11.80;99.90;;;;;;5112988;27;19958;-57
2022/09/26 01:28:04;;;;;;;;;;;11.80;99.90;;;;;;5085639;28;19931;-58
2022/09/26 01:30:44;;;;;;;;;;;11.80;99.90;;;;;;5086448;28;19928;-56
2022/09/26 01:33:31;;;;;;;;;;;11.90;99.90;;;;;;5086735;28;20264;-58
2022/09/26 01:36:34;;;;;;;;;;;11.90;99.90;;;;;;5105604;27;20322;-57
2022/09/26 01:39:10;;;;;;;;;;;11.90;99.90;;;;;;5060438;28;20426;-58
2022/09/26 01:41:57;;;;;;;;;;;11.90;99.90;;;;;;5075233;28;20101;-57
2022/09/26 01:44:40;;;;;;;;;;;12.00;99.90;;;;;;5106253;28;19931;-58
2022/09/26 01:47:16;;;;;;;;;;;12.00;99.90;;;;;;5072259;28;19924;-57
2022/09/26 01:49:53;;;;;;;;;;;12.00;99.90;;;;;;5102373;28;19932;-58
2022/09/26 01:52:24;;;;;;;;;;;12.00;99.90;;;;;;5090771;28;19931;-58
2022/09/26 01:54:54;;;;;;;;;;;12.00;99.90;;;;;;5088323;28;19931;-58
2022/09/26 01:57:26;;;;;;;;;;;12.10;99.90;;;;;;5090983;28;20509;-58
2022/09/26 01:59:54;;;;;;;;;;;12.10;99.90;;;;;;5105454;28;19923;-58
2022/09/26 02:02:25;;;;;;;;;;;12.00;99.90;;;;;;5090762;28;19923;-57
2022/09/26 02:04:55;;;;;;;;;;;12.10;99.90;;;;;;5094881;27;19924;-58
2022/09/26 02:07:26;;;;;;;;;;;12.10;99.90;;;;;;5108197;28;19924;-58
2022/09/26 02:10:01;;;;;;;;;;;12.10;99.90;;;;;;5108214;28;19923;-59
2022/09/26 02:12:31;;;;;;;;;;;12.10;99.90;;;;;;5073585;28;19935;-57
2022/09/26 02:15:00;;;;;;;;;;;12.10;99.90;;;;;;5088557;28;19928;-58
2022/09/26 02:17:32;;;;;;;;;;;12.10;99.90;;;;;;5075105;28;19954;-58
2022/09/26 02:20:01;;;;;;;;;;;12.10;99.90;;;;;;5089444;28;19927;-57
2022/09/26 02:22:32;;;;;;;;;;;12.10;99.90;;;;;;5091080;28;20406;-56
2022/09/26 02:25:01;;;;;;;;;;;12.10;99.90;;;;;;5106484;28;19932;-55
2022/09/26 02:27:28;;;;;;;;;;;12.10;99.90;;;;;;5107877;28;19939;-56
2022/09/26 02:29:57;;;;;;;;;;;12.10;99.90;;;;;;5089454;28;20299;-56
2022/09/26 02:32:30;;;;;;;;;;;12.10;99.90;;;;;;5090958;28;19945;-57
2022/09/26 02:34:58;;;;;;;;;;;12.20;99.90;;;;;;5094874;28;20410;-56
2022/09/26 02:37:29;;;;;;;;;;;12.10;99.90;;;;;;5091272;28;20315;-57
2022/09/26 02:39:57;;;;;;;;;;;12.20;99.90;;;;;;5093666;28;20288;-58
2022/09/26 02:42:29;;;;;;;;;;;12.20;99.90;;;;;;5097373;28;19935;-58
2022/09/26 02:44:56;;;;;;;;;;;12.20;99.90;;;;;;5099517;28;19923;-58
2022/09/26 02:47:35;;;;;;;;;;;12.20;99.90;;;;;;5116896;28;19931;-58
2022/09/26 02:50:16;;;;;;;;;;;12.20;99.90;;;;;;5099156;28;19931;-61
2022/09/26 02:52:48;;;;;;;;;;;12.10;99.90;;;;;;5099366;28;19924;-61
2022/09/26 02:56:02;;;;;;;;;;;12.10;99.90;;;;;;5099084;28;20370;-60
2022/09/26 02:58:46;;;;;;;;;;;12.10;99.90;;;;;;5030882;28;19925;-61
2022/09/26 03:01:17;;;;;;;;;;;12.10;99.90;;;;;;5016203;28;19997;-61
2022/09/26 03:03:51;;;;;;;;;;;12.00;99.90;;;;;;5058248;28;19924;-62
2022/09/26 03:06:22;;;;;;;;;;;12.00;99.90;;;;;;5100518;28;19947;-61
2022/09/26 03:08:50;;;;;;;;;;;11.90;99.90;;;;;;5093878;28;19925;-60
2022/09/26 03:11:19;;;;;;;;;;;11.80;99.90;;;;;;5097897;28;19947;-59
2022/09/26 03:13:49;;;;;;;;;;;11.70;99.90;;;;;;5098311;28;19927;-60
2022/09/26 03:16:18;;;;;;;;;;;11.60;99.90;;;;;;5099873;28;19923;-60
2022/09/26 03:18:54;;;;;;;;;;;11.50;99.90;;;;;;5096060;28;20359;-60
2022/09/26 03:21:23;;;;;;;;;;;11.50;99.90;;;;;;5099787;28;20389;-60
2022/09/26 03:23:51;;;;;;;;;;;11.40;99.90;;;;;;5098019;28;19924;-59
2022/09/26 03:26:21;;;;;;;;;;;11.40;99.90;;;;;;5097341;28;20303;-60
2022/09/26 03:28:55;;;;;;;;;;;11.30;99.90;;;;;;5098840;28;19931;-59
2022/09/26 03:31:27;;;;;;;;;;;11.30;99.90;;;;;;5098965;28;20485;-59
2022/09/26 03:34:00;;;;;;;;;;;11.30;99.90;;;;;;5117764;27;19931;-59
2022/09/26 03:36:28;;;;;;;;;;;11.20;99.90;;;;;;5133569;27;19931;-60
2022/09/26 03:38:56;;;;;;;;;;;11.20;99.90;;;;;;5099698;28;19924;-59
2022/09/26 03:41:35;;;;;;;;;;;11.20;99.90;;;;;;5099576;28;20379;-59
2022/09/26 03:44:12;;;;;;;;;;;11.10;99.90;;;;;;5116713;28;20407;-59
2022/09/26 03:47:03;;;;;;;;;;;11.10;99.90;;;;;;5108905;28;19939;-59
2022/09/26 03:49:33;;;;;;;;;;;11.00;99.90;;;;;;5098482;28;19947;-59
2022/09/26 03:52:02;;;;;;;;;;;10.90;99.90;;;;;;5099760;28;19923;-59
2022/09/26 03:54:29;;;;;;;;;;;10.90;99.90;;;;;;5080700;28;19935;-61
2022/09/26 03:56:57;;;;;;;;;;;10.90;99.90;;;;;;5110976;28;19931;-59
2022/09/26 03:59:24;;;;;;;;;;;10.90;99.90;;;;;;5096412;28;19930;-59
2022/09/26 04:01:52;;;;;;;;;;;10.90;99.90;;;;;;5095626;28;19930;-59
2022/09/26 04:04:20;;;;;;;;;;;10.90;99.90;;;;;;5098644;27;19924;-58
2022/09/26 04:06:49;;;;;;;;;;;11.00;99.90;;;;;;5095913;28;19924;-59
2022/09/26 04:09:17;;;;;;;;;;;10.80;99.90;;;;;;5096174;28;19939;-60
2022/09/26 04:11:49;;;;;;;;;;;10.90;99.90;;;;;;5095680;28;19923;-60
2022/09/26 04:14:17;;;;;;;;;;;11.00;99.90;;;;;;5095407;28;19924;-60
2022/09/26 04:16:48;;;;;;;;;;;11.00;99.90;;;;;;5096602;28;20268;-59
2022/09/26 04:19:25;;;;;;;;;;;10.10;99.90;;;;;;5094983;28;19924;-60
2022/09/26 04:21:53;;;;;;;;;;;10.90;99.90;;;;;;5080225;28;19931;-59
2022/09/26 04:24:20;;;;;;;;;;;10.90;99.90;;;;;;5096153;28;19923;-60
2022/09/26 04:26:48;;;;;;;;;;;10.90;99.90;;;;;;5096524;28;19930;-59
2022/09/26 04:29:16;;;;;;;;;;;10.90;99.90;;;;;;5095199;28;19924;-59
2022/09/26 04:32:06;;;;;;;;;;;10.90;99.90;;;;;;5106731;28;19932;-60
2022/09/26 04:34:54;;;;;;;;;;;10.80;99.90;;;;;;5078724;27;19924;-59
2022/09/26 04:37:21;;;;;;;;;;;10.70;99.90;;;;;;5096714;28;19923;-58
2022/09/26 04:39:49;;;;;;;;;;;10.70;99.90;;;;;;5094654;28;19924;-58
2022/09/26 04:42:16;;;;;;;;;;;10.70;99.90;;;;;;5095085;28;19931;-59
2022/09/26 04:44:43;;;;;;;;;;;10.70;99.90;;;;;;5095093;28;19930;-59
2022/09/26 04:47:11;;;;;;;;;;;10.70;99.90;;;;;;5091572;27;19931;-59
2022/09/26 04:49:58;;;;;;;;;;;10.60;99.90;;;;;;5106354;28;20318;-59
2022/09/26 04:52:26;;;;;;;;;;;10.60;99.90;;;;;;5074168;28;19931;-59
2022/09/26 04:54:54;;;;;;;;;;;10.60;99.90;;;;;;5091881;28;19931;-57
2022/09/26 04:57:21;;;;;;;;;;;10.60;99.90;;;;;;5113004;27;19931;-57
2022/09/26 04:59:48;;;;;;;;;;;10.60;99.90;;;;;;5100794;28;20298;-57
2022/09/26 05:02:17;;;;;;;;;;;9.70;99.90;;;;;;5084659;28;19924;-57
2022/09/26 05:04:47;;;;;;;;;;;10.50;99.90;;;;;;5103653;27;19923;-57
2022/09/26 05:07:15;;;;;;;;;;;10.40;99.90;;;;;;5078682;27;19923;-57
2022/09/26 05:09:43;;;;;;;;;;;10.40;99.90;;;;;;5096051;28;19931;-58
2022/09/26 05:12:14;;;;;;;;;;;10.30;99.90;;;;;;5089448;28;19931;-57
2022/09/26 05:14:44;;;;;;;;;;;10.20;99.90;;;;;;5086916;28;19935;-58
2022/09/26 05:17:13;;;;;;;;;;;10.20;99.90;;;;;;5082092;28;19939;-59
2022/09/26 05:19:44;;;;;;;;;;;10.10;99.90;;;;;;5089304;28;19927;-59
2022/09/26 05:22:30;;;;;;;;;;;10.20;99.90;;;;;;5089471;28;19947;-59
2022/09/26 05:27:44;;;;;;;;;;;10.10;99.90;;;;;;5091272;28;19931;-57
2022/09/26 05:30:12;;;;;;;;;;;10.10;99.90;;;;;;5082732;28;19939;-60
2022/09/26 05:32:40;;;;;;;;;;;10.20;99.90;;;;;;5096998;28;19924;-58
2022/09/26 05:35:07;;;;;;;;;;;10.20;99.90;;;;;;5095690;27;19931;-57
2022/09/26 05:37:39;;;;;;;;;;;10.20;99.90;;;;;;5090732;28;20342;-57
2022/09/26 05:43:01;;;;;;;;;;;10.20;99.90;;;;;;5090861;28;19923;-57
2022/09/26 05:45:30;;;;;;;;;;;10.20;99.90;;;;;;5091931;28;19934;-58
2022/09/26 05:48:00;;;;;;;;;;;10.20;99.90;;;;;;5084224;28;19924;-59
2022/09/26 05:50:28;;;;;;;;;;;10.20;99.90;;;;;;5089519;28;19928;-59
2022/09/26 05:52:56;;;;;;;;;;;10.20;99.90;;;;;;5090229;28;19924;-60
2022/09/26 05:55:28;;;;;;;;;;;10.20;99.90;;;;;;5089129;28;19928;-60
2022/09/26 05:58:05;;;;;;;;;;;10.20;99.90;;;;;;5106064;27;19931;-56
2022/09/26 06:01:12;;;;;;;;;;;10.20;99.90;;;;;;5051631;28;19931;-60
2022/09/26 06:03:41;;;;;;;;;;;10.20;99.90;;;;;;5092339;28;19943;-56
2022/09/26 06:06:17;;;;;;;;;;;10.20;99.90;;;;;;5096718;28;19931;-57
2022/09/26 06:08:46;;;;;;;;;;;10.20;99.90;;;;;;5106104;28;19924;-59
2022/09/26 06:11:29;;;;;;;;;;;10.20;99.90;;;;;;5108453;28;20080;-62
2022/09/26 06:13:59;;;;;;;;;;;10.20;99.90;;;;;;5090341;28;19924;-60
2022/09/26 06:16:27;;;;;;;;;;;10.10;99.90;;;;;;5105629;28;19923;-58
2022/09/26 06:18:55;;;;;;;;;;;10.10;99.90;;;;;;5086536;28;19924;-61
2022/09/26 06:21:23;;;;;;;;;;;10.10;99.90;;;;;;5104392;28;19928;-60
2022/09/26 06:23:57;;;;;;;;;;;10.00;99.90;;;;;;5087977;28;19924;-61
2022/09/26 06:26:28;;;;;;;;;;;10.00;99.90;;;;;;5090288;28;19924;-61
2022/09/26 06:28:56;;;;;;;;;;;9.90;99.90;;;;;;5087888;28;19955;-60
2022/09/26 06:31:25;;;;;;;;;;;9.90;99.90;;;;;;5089999;28;19924;-61
2022/09/26 06:34:14;;;;;;;;;;;9.90;99.90;;;;;;5099943;28;19931;-59
2022/09/26 06:36:50;;;;;;;;;;;9.90;99.90;;;;;;5085671;28;19932;-58
2022/09/26 06:39:17;;;;;;;;;;;10.00;99.90;;;;;;5083904;28;19950;-58
2022/09/26 06:41:46;;;;;;;;;;;10.10;99.90;;;;;;5085348;28;19923;-57
2022/09/26 06:44:49;;;;;;;;;;;10.10;99.90;;;;;;5112277;28;19924;-60
2022/09/26 06:47:22;;;;;;;;;;;10.10;99.90;;;;;;5098057;28;19935;-60
2022/09/26 06:50:01;;;;;;;;;;;10.10;99.90;;;;;;5086807;28;20165;-60
2022/09/26 06:52:34;;;;;;;;;;;10.20;99.90;;;;;;5082933;28;19923;-61
2022/09/26 06:55:03;;;;;;;;;;;10.20;99.90;;;;;;5080123;28;19928;-61
2022/09/26 06:57:39;;;;;;;;;;;10.20;99.90;;;;;;5085631;28;19931;-60
2022/09/26 07:00:08;;;;;;;;;;;10.20;99.90;;;;;;5089213;28;19928;-60
2022/09/26 07:02:55;;;;;;;;;;;10.30;99.90;;;;;;5093907;28;19935;-60
2022/09/26 07:05:43;;;;;;;;;;;10.20;99.90;;;;;;5083186;28;19928;-60
2022/09/26 07:08:11;;;;;;;;;;;10.20;99.90;;;;;;5084427;28;19943;-60
2022/09/26 07:10:39;;;;;;;;;;;10.30;99.90;;;;;;5069654;28;19927;-57
2022/09/26 07:13:12;;;;;;;;;;;10.30;99.90;;;;;;5089610;28;19930;-58
2022/09/26 07:15:42;;;;;;;;;;;10.30;99.90;;;;;;5087273;28;19928;-59
2022/09/26 07:18:25;;;;;;;;;;;10.30;99.90;;;;;;5089714;28;19943;-60
2022/09/26 07:21:18;;;;;;;;;;;10.30;99.90;;;;;;5089598;28;20257;-61
2022/09/26 07:23:49;;;;;;;;;;;10.30;99.90;;;;;;5090938;28;20303;-58
2022/09/26 07:26:19;;;;;;;;;;;10.30;99.90;;;;;;5080004;28;19927;-58
2022/09/26 07:28:47;;;;;;;;;;;10.30;99.90;;;;;;5077395;28;19931;-58
2022/09/26 07:31:25;;;;;;;;;;;10.20;99.90;;;;;;5066132;28;19939;-60
2022/09/26 07:34:12;;;;;;;;;;;10.20;99.90;;;;;;5074598;27;19924;-58
2022/09/26 07:36:46;;;;;;;;;;;10.20;99.90;;;;;;5094859;28;19927;-58
2022/09/26 07:39:14;;;;;;;;;;;10.20;99.90;;;;;;5095267;28;19928;-60
2022/09/26 07:41:42;;;;;;;;;;;10.20;99.90;;;;;;5073896;28;19928;-57
2022/09/26 07:44:10;;;;;;;;;;;10.20;99.90;;;;;;5085942;28;19928;-57
2022/09/26 07:52:36;;;;;;;;;;;10.10;99.90;;;;;;5057580;28;19924;-58
2022/09/26 07:55:20;;;;;;;;;;;10.10;99.90;;;;;;5091629;28;19924;-58
2022/09/26 07:58:01;;;;;;;;;;;10.20;99.90;;;;;;5080951;28;20307;-57
2022/09/26 08:00:32;;;;;;;;;;;10.20;99.90;;;;;;5111500;28;19934;-58
2022/09/26 08:03:12;;;;;;;;;;;10.30;99.90;;;;;;5094144;27;19931;-55
2022/09/26 08:05:42;;;;;;;;;;;10.30;99.90;;;;;;5110489;27;20287;-57
2022/09/26 08:08:10;;;;;;;;;;;10.20;99.90;;;;;;5101315;28;19924;-57
2022/09/26 08:10:57;;;;;;;;;;;10.20;99.90;;;;;;5091665;28;19924;-58
2022/09/26 08:13:42;;;;;;;;;;;10.00;99.90;;;;;;5089031;27;19934;-58
2022/09/26 08:16:40;;;;;;;;;;;10.00;99.90;;;;;;5127998;27;19930;-57
2022/09/26 08:19:09;;;;;;;;;;;10.00;99.90;;;;;;5092816;28;19994;-60
2022/09/26 08:21:38;;;;;;;;;;;10.10;99.90;;;;;;5089583;28;19928;-57
2022/09/26 08:24:05;;;;;;;;;;;10.10;99.90;;;;;;5086028;28;20067;-59
2022/09/26 08:26:53;;;;;;;;;;;10.20;99.90;;;;;;5070787;28;20375;-61
2022/09/26 08:29:25;;;;;;;;;;;10.20;99.90;;;;;;5088851;28;19924;-60
2022/09/26 08:31:54;;;;;;;;;;;10.30;99.90;;;;;;5089915;28;19933;-59
2022/09/26 08:34:21;;;;;;;;;;;10.30;99.90;;;;;;5102070;28;19928;-59
2022/09/26 08:37:10;;;;;;;;;;;10.40;99.90;;;;;;5110462;28;20390;-60
2022/09/26 08:39:59;;;;;;;;;;;10.40;99.90;;;;;;5072001;28;19929;-60
2022/09/26 08:43:07;;;;;;;;;;;10.40;99.90;;;;;;5069525;28;19924;-56
2022/09/26 08:48:57;;;;;;;;;;;10.50;99.90;;;;;;5085557;28;19924;-57
2022/09/26 08:51:30;;;;;;;;;;;10.50;99.90;;;;;;5106167;28;20003;-56
2022/09/26 08:54:05;;;;;;;;;;;10.50;99.90;;;;;;5080630;28;19924;-58
2022/09/26 08:56:34;;;;;;;;;;;10.60;99.90;;;;;;5069207;28;19939;-57
2022/09/26 08:59:03;;;;;;;;;;;10.50;99.90;;;;;;5084752;28;19939;-58
2022/09/26 09:01:37;;;;;;;;;;;10.50;99.90;;;;;;5089387;28;19924;-60
2022/09/26 09:04:21;;;;;;;;;;;10.40;99.90;;;;;;5101523;28;19930;-57
2022/09/26 09:06:54;;;;;;;;;;;10.40;99.90;;;;;;5109572;28;20322;-57
2022/09/26 09:09:21;;;;;;;;;;;10.40;99.90;;;;;;5079464;28;19924;-57
2022/09/26 09:12:07;;;;;;;;;;;10.40;99.90;;;;;;5069004;28;19931;-57
2022/09/26 09:14:34;;;;;;;;;;;10.40;99.90;;;;;;5082015;28;20272;-57
2022/09/26 09:17:07;;;;;;;;;;;10.50;99.90;;;;;;5110399;28;19924;-60
2022/09/26 09:19:58;;;;;;;;;;;10.60;99.90;;;;;;5059210;28;19925;-59
2022/09/26 09:22:50;;;;;;;;;;;10.70;99.90;;;;;;5088299;28;19924;-60
2022/09/26 09:25:29;;;;;;;;;;;10.80;99.90;;;;;;5073946;28;19924;-59
2022/09/26 09:28:00;;;;;;;;;;;10.80;99.90;;;;;;5076642;28;19925;-61
2022/09/26 09:30:40;;;;;;;;;;;10.80;99.90;;;;;;5088638;28;19931;-59
2022/09/26 09:33:54;;;;;;;;;;;10.80;99.90;;;;;;5088469;28;19931;-61
2022/09/26 09:36:21;;;;;;;;;;;10.80;99.90;;;;;;5108095;28;19930;-60
2022/09/26 09:39:08;;;;;;;;;;;10.90;99.90;;;;;;5086420;28;19928;-61
2022/09/26 09:42:08;;;;;;;;;;;11.10;99.90;;;;;;5063346;28;19935;-60
2022/09/26 09:44:39;;;;;;;;;;;11.20;99.90;;;;;;5083078;28;19924;-59
2022/09/26 09:47:16;;;;;;;;;;;11.20;99.90;;;;;;5089168;28;19928;-60
2022/09/26 09:49:45;;;;;;;;;;;11.30;99.90;;;;;;5088169;28;19928;-60
2022/09/26 09:52:25;;;;;;;;;;;11.30;99.90;;;;;;5087337;28;19928;-59
2022/09/26 09:55:30;;;;;;;;;;;11.40;99.90;;;;;;5082623;28;20391;-60
2022/09/26 09:58:36;;;;;;;;;;;11.40;99.90;;;;;;5016689;28;19925;-58
2022/09/26 10:01:18;;;;;;;;;;;11.50;99.90;;;;;;5066426;28;19951;-57
2022/09/26 10:03:54;;;;;;;;;;;11.60;99.90;;;;;;5040983;28;19932;-59
2022/09/26 10:06:24;;;;;;;;;;;11.70;99.90;;;;;;5093820;28;19928;-58
2022/09/26 10:09:31;;;;;;;;;;;11.80;99.90;;;;;;5085541;28;19928;-57
2022/09/26 10:12:27;;;;;;;;;;;11.80;99.90;;;;;;5069208;28;19924;-59
2022/09/26 10:15:18;;;;;;;;;;;11.90;99.90;;;;;;5109500;28;20318;-57
2022/09/26 10:18:06;;;;;;;;;;;11.00;99.90;;;;;;5101069;28;19924;-58
2022/09/26 10:21:12;;;;;;;;;;;12.00;99.90;;;;;;5088982;28;19924;-57
2022/09/26 10:23:43;;;;;;;;;;;12.00;99.90;;;;;;5088877;28;19924;-58
2022/09/26 10:26:23;;;;;;;;;;;12.00;99.90;;;;;;5067600;28;19924;-59
2022/09/26 10:29:07;;;;;;;;;;;12.00;99.90;;;;;;5083872;28;19931;-59
2022/09/26 10:31:38;;;;;;;;;;;12.10;99.90;;;;;;5085703;28;19935;-57
2022/09/26 10:34:34;;;;;;;;;;;12.10;99.90;;;;;;5085679;28;20307;-59
2022/09/26 10:37:21;;;;;;;;;;;12.30;99.90;;;;;;5108403;28;19924;-58
2022/09/26 10:42:42;;;;;;;;;;;12.40;99.90;;;;;;5067250;28;19931;-58
2022/09/26 10:45:14;;;;;;;;;;;12.50;99.90;;;;;;5086339;28;20303;-58
2022/09/26 10:48:35;;;;;;;;;;;12.60;99.90;;;;;;5045886;28;20449;-58
2022/09/26 10:51:41;;;;;;;;;;;12.70;99.90;;;;;;5029415;28;19928;-60
2022/09/26 10:54:19;;;;;;;;;;;12.60;99.90;;;;;;5085095;28;19924;-59
2022/09/26 10:56:49;;;;;;;;;;;12.60;99.90;;;;;;5066545;28;20532;-59
2022/09/26 10:59:23;;;;;;;;;;;12.50;99.90;;;;;;5084753;28;20703;-59
2022/09/26 11:01:54;;;;;;;;;;;12.50;99.90;;;;;;5104383;28;19930;-60
2022/09/26 11:07:44;;;;;;;;;;;12.50;99.90;;;;;;5108057;28;19924;-60
2022/09/26 11:10:33;;;;;;;;;;;12.50;99.90;;;;;;5087358;28;20383;-57
2022/09/26 11:13:28;;;;;;;;;;;12.50;99.90;;;;;;5076382;28;19924;-57
2022/09/26 11:16:09;;;;;;;;;;;12.60;99.90;;;;;;5087639;28;19937;-58
2022/09/26 11:18:48;;;;;;;;;;;12.80;99.90;;;;;;5085828;28;20383;-57
2022/09/26 11:21:19;;;;;;;;;;;13.10;99.90;;;;;;5111224;28;20379;-57
2022/09/26 11:24:01;;;;;;;;;;;13.30;99.90;;;;;;5112507;28;19931;-59
2022/09/26 11:26:34;;;;;;;;;;;13.30;99.90;;;;;;5092991;28;19924;-57
2022/09/26 11:29:08;;;;;;;;;;;13.30;99.90;;;;;;5089913;28;19931;-60
2022/09/26 11:31:44;;;;;;;;;;;13.30;99.90;;;;;;5094395;28;19924;-59
2022/09/26 11:34:31;;;;;;;;;;;13.30;99.90;;;;;;5125937;27;20433;-59
2022/09/26 11:37:09;;;;;;;;;;;13.30;99.90;;;;;;5114448;27;19924;-56
2022/09/26 11:39:57;;;;;;;;;;;13.30;99.90;;;;;;5075062;28;19924;-59
2022/09/26 11:42:43;;;;;;;;;;;13.30;99.90;;;;;;5094301;28;19939;-58
2022/09/26 11:45:17;;;;;;;;;;;13.40;99.90;;;;;;5093443;28;20418;-59
2022/09/26 11:48:11;;;;;;;;;;;13.40;99.90;;;;;;5112104;28;20272;-59
2022/09/26 11:50:59;;;;;;;;;;;13.60;99.90;;;;;;5111879;28;19931;-59
2022/09/26 11:53:41;;;;;;;;;;;13.80;99.90;;;;;;5099347;27;19931;-57
2022/09/26 11:56:08;;;;;;;;;;;14.00;99.90;;;;;;5104116;27;19924;-55
2022/09/26 11:58:58;;;;;;;;;;;13.90;99.90;;;;;;5103871;28;19923;-58
2022/09/26 12:01:28;;;;;;;;;;;13.90;99.90;;;;;;5111831;28;19930;-56
2022/09/26 12:03:55;;;;;;;;;;;13.60;99.90;;;;;;5111723;28;19924;-59
2022/09/26 12:06:49;;;;;;;;;;;13.60;99.90;;;;;;5131577;27;20117;-59
2022/09/26 12:09:23;;;;;;;;;;;13.70;99.90;;;;;;5109848;27;19924;-59
2022/09/26 12:12:08;;;;;;;;;;;13.90;99.90;;;;;;5092467;28;19924;-60
2022/09/26 12:14:39;;;;;;;;;;;13.90;99.90;;;;;;5102510;28;19931;-61
2022/09/26 12:17:17;;;;;;;;;;;14.20;99.90;;;;;;5082277;28;20371;-59
2022/09/26 12:19:55;;;;;;;;;;;14.50;99.90;;;;;;5086342;28;20307;-60
2022/09/26 12:22:28;;;;;;;;;;;14.60;99.90;;;;;;5091443;28;19924;-58
2022/09/26 12:25:08;;;;;;;;;;;14.90;99.90;;;;;;5102760;27;19923;-61
2022/09/26 12:27:58;;;;;;;;;;;15.20;99.90;;;;;;5098605;27;19954;-61
2022/09/26 12:30:31;;;;;;;;;;;15.20;99.90;;;;;;5122751;27;19970;-59
2022/09/26 12:32:59;;;;;;;;;;;15.00;99.90;;;;;;5111312;28;19931;-59
2022/09/26 12:35:55;;;;;;;;;;;14.70;99.90;;;;;;5122913;27;19924;-59
2022/09/26 12:38:35;;;;;;;;;;;14.40;99.90;;;;;;5099627;27;19931;-60
2022/09/26 12:41:13;;;;;;;;;;;14.10;99.90;;;;;;5109943;28;19924;-59
2022/09/26 12:43:40;;;;;;;;;;;14.00;99.90;;;;;;5115752;27;20371;-58
2022/09/26 12:46:26;;;;;;;;;;;14.30;99.90;;;;;;5131778;27;19934;-56
2022/09/26 12:49:05;;;;;;;;;;;15.30;99.90;;;;;;5116681;27;20398;-57
2022/09/26 12:51:32;;;;;;;;;;;16.00;99.90;;;;;;5110852;28;19931;-56
2022/09/26 12:54:03;;;;;;;;;;;16.10;99.90;;;;;;5101520;27;19953;-57
2022/09/26 12:56:54;;;;;;;;;;;16.00;99.90;;;;;;5104904;27;19932;-57
2022/09/26 12:59:32;;;;;;;;;;;16.10;99.90;;;;;;5082298;27;19923;-60
2022/09/26 13:02:23;;;;;;;;;;;16.20;99.90;;;;;;5131069;27;20298;-59
2022/09/26 13:05:09;;;;;;;;;;;16.10;99.90;;;;;;5130867;27;19924;-60
2022/09/26 13:07:50;;;;;;;;;;;15.80;99.90;;;;;;5109224;28;19930;-59
2022/09/26 13:10:30;;;;;;;;;;;15.40;99.90;;;;;;5109344;28;19924;-60
2022/09/26 13:13:10;;;;;;;;;;;15.20;99.90;;;;;;5090168;28;19928;-59
2022/09/26 13:15:50;;;;;;;;;;;15.30;99.90;;;;;;5130926;27;20393;-60
2022/09/26 13:18:27;;;;;;;;;;;15.40;99.90;;;;;;5121298;27;19924;-59
2022/09/26 13:21:05;;;;;;;;;;;15.40;99.90;;;;;;5109493;28;19924;-57
2022/09/26 13:23:32;;;;;;;;;;;15.20;99.90;;;;;;5114897;27;19931;-59
2022/09/26 13:26:13;;;;;;;;;;;14.90;99.90;;;;;;5117156;27;19924;-59
2022/09/26 13:28:45;;;;;;;;;;;14.70;99.90;;;;;;5114914;27;19997;-61
2022/09/26 13:31:34;;;;;;;;;;;14.40;99.90;;;;;;5130907;27;20264;-60
2022/09/26 13:34:11;;;;;;;;;;;14.40;99.90;;;;;;5130628;27;19923;-59
2022/09/26 13:36:41;;;;;;;;;;;14.40;99.90;;;;;;5111851;27;20406;-58
2022/09/26 13:39:12;;;;;;;;;;;14.60;99.90;;;;;;5096019;28;20413;-60
2022/09/26 13:42:09;;;;;;;;;;;15.60;99.90;;;;;;5098810;28;19924;-59
2022/09/26 13:44:50;;;;;;;;;;;15.80;99.90;;;;;;5099801;27;19927;-58
2022/09/26 13:47:26;;;;;;;;;;;15.70;99.90;;;;;;5129266;27;19927;-57
2022/09/26 13:49:56;;;;;;;;;;;16.00;99.90;;;;;;5109709;28;19928;-58
2022/09/26 13:52:39;;;;;;;;;;;16.30;99.90;;;;;;5109607;28;19923;-58
2022/09/26 13:55:11;;;;;;;;;;;16.40;99.90;;;;;;5127290;27;19923;-59
2022/09/26 13:58:02;;;;;;;;;;;16.40;99.50;;;;;;5096912;27;19924;-59
2022/09/26 14:00:30;;;;;;;;;;;16.30;99.30;;;;;;5109746;28;19924;-58
2022/09/26 14:03:14;;;;;;;;;;;16.20;99.90;;;;;;5109879;28;19923;-57
2022/09/26 14:05:51;;;;;;;;;;;16.20;99.60;;;;;;5116670;27;19924;-57
2022/09/26 14:11:33;;;;;;;;;;;16.10;99.20;;;;;;5105007;28;19923;-56
2022/09/26 14:14:16;;;;;;;;;;;16.10;99.00;;;;;;5117820;27;19930;-59
2022/09/26 14:16:44;;;;;;;;;;;16.00;99.60;;;;;;5129871;27;19923;-58
2022/09/26 14:19:18;;;;;;;;;;;15.80;99.10;;;;;;5112778;27;20677;-59
2022/09/26 14:22:12;;;;;;;;;;;15.30;98.40;;;;;;5090952;28;19928;-58
2022/09/26 14:24:43;;;;;;;;;;;15.40;99.40;;;;;;5091871;27;19924;-57
2022/09/26 14:27:10;;;;;;;;;;;15.20;99.90;;;;;;5086481;28;19924;-58
2022/09/26 14:29:38;;;;;;;;;;;15.10;99.90;;;;;;5089111;28;19927;-57
2022/09/26 14:32:11;;;;;;;;;;;15.00;99.90;;;;;;5088805;28;19924;-57
2022/09/26 14:34:42;;;;;;;;;;;14.90;99.90;;;;;;5107146;28;19923;-57
2022/09/26 14:37:32;;;;;;;;;;;14.70;99.90;;;;;;5128995;27;19989;-57
2022/09/26 14:40:05;;;;;;;;;;;14.60;99.90;;;;;;5086111;28;19924;-58
2022/09/26 14:42:42;;;;;;;;;;;14.50;99.90;;;;;;5097418;28;19930;-59
2022/09/26 14:45:15;;;;;;;;;;;14.50;99.90;;;;;;5095532;28;19931;-60
2022/09/26 14:47:47;;;;;;;;;;;14.50;99.90;;;;;;5099094;28;20174;-60
2022/09/26 14:50:25;;;;;;;;;;;14.60;99.90;;;;;;5103624;28;19935;-58
2022/09/26 14:52:54;;;;;;;;;;;14.70;99.90;;;;;;5099373;28;19935;-59
2022/09/26 14:55:22;;;;;;;;;;;14.60;99.90;;;;;;5087503;28;19924;-59
2022/09/26 14:57:50;;;;;;;;;;;14.70;99.90;;;;;;5076283;28;19924;-59
2022/09/26 15:00:52;;;;;;;;;;;14.80;99.90;;;;;;5100747;28;20398;-59
2022/09/26 15:03:20;;;;;;;;;;;14.80;99.90;;;;;;5017851;28;19939;-59
2022/09/26 15:05:48;;;;;;;;;;;14.80;99.90;;;;;;5091522;28;19932;-58
2022/09/26 15:08:19;;;;;;;;;;;14.90;99.90;;;;;;5098295;28;19932;-59
2022/09/26 15:10:47;;;;;;;;;;;15.00;99.90;;;;;;5087375;28;19932;-59
2022/09/26 15:13:33;;;;;;;;;;;15.10;99.90;;;;;;5090666;28;20532;-59
2022/09/26 15:16:18;;;;;;;;;;;15.10;99.90;;;;;;5100111;28;19924;-59
2022/09/26 15:18:55;;;;;;;;;;;15.30;99.90;;;;;;5107537;28;19924;-59
2022/09/26 15:21:25;;;;;;;;;;;15.30;99.50;;;;;;5100388;28;19923;-58
2022/09/26 15:23:53;;;;;;;;;;;15.20;98.80;;;;;;5100293;28;20223;-57
2022/09/26 15:26:32;;;;;;;;;;;15.10;99.10;;;;;;5108637;28;19930;-57
2022/09/26 15:29:00;;;;;;;;;;;14.80;99.50;;;;;;5098349;28;19931;-56